sensor_id;sensor_type;location;lat;lon;timestamp;noise_LAeq;noise_LA_min;noise_LA_max;noise_LA01;noise_LA95
64079;Laerm;51042;49.696;10.808;2023-04-02T00:09:14;40.94;39.01;45.28;;
64079;Laerm;51042;49.696;10.808;2023-04-02T00:11:46;61.66;38.96;83.87;;
64079;Laerm;51042;49.696;10.808;2023-04-02T00:14:29;49.36;38.56;66.63;;
64079;Laerm;51042;49.696;10.808;2023-04-02T00:16:56;40.67;38.02;57.78;;
64079;Laerm;51042;49.696;10.808;2023-04-02T00:19:34;53.14;38.30;70.00;;
64079;Laerm;51042;49.696;10.808;2023-04-02T00:22:05;49.38;38.32;64.58;;
64079;Laerm;51042;49.696;10.808;2023-04-02T00:24:32;41.96;38.79;63.46;;
64079;Laerm;51042;49.696;10.808;2023-04-02T00:26:57;40.81;38.74;45.91;;
64079;Laerm;51042;49.696;10.808;2023-04-02T00:29:23;40.72;38.65;42.77;;
64079;Laerm;51042;49.696;10.808;2023-04-02T00:31:52;41.24;38.63;52.56;;
64079;Laerm;51042;49.696;10.808;2023-04-02T00:34:26;41.83;38.64;59.21;;
64079;Laerm;51042;49.696;10.808;2023-04-02T00:36:53;40.81;38.50;43.51;;
64079;Laerm;51042;49.696;10.808;2023-04-02T00:39:22;40.72;38.59;53.08;;
64079;Laerm;51042;49.696;10.808;2023-04-02T00:41:52;50.73;38.76;68.54;;
64079;Laerm;51042;49.696;10.808;2023-04-02T00:44:26;40.70;38.60;44.81;;
64079;Laerm;51042;49.696;10.808;2023-04-02T00:46:53;49.89;38.22;65.70;;
64079;Laerm;51042;49.696;10.808;2023-04-02T00:49:24;41.10;38.21;59.31;;
64079;Laerm;51042;49.696;10.808;2023-04-02T00:51:56;40.65;38.43;49.58;;
64079;Laerm;51042;49.696;10.808;2023-04-02T00:54:24;40.56;38.27;44.11;;
64079;Laerm;51042;49.696;10.808;2023-04-02T00:56:53;40.40;38.12;51.16;;
64079;Laerm;51042;49.696;10.808;2023-04-02T00:59:47;40.28;38.24;52.32;;
64079;Laerm;51042;49.696;10.808;2023-04-02T01:04:39;39.64;37.48;51.90;;
64079;Laerm;51042;49.696;10.808;2023-04-02T01:07:08;40.69;37.64;54.97;;
64079;Laerm;51042;49.696;10.808;2023-04-02T01:10:11;52.11;38.08;68.62;;
64079;Laerm;51042;49.696;10.808;2023-04-02T01:12:50;42.46;38.66;62.26;;
64079;Laerm;51042;49.696;10.808;2023-04-02T01:15:36;41.24;38.91;54.55;;
64079;Laerm;51042;49.696;10.808;2023-04-02T01:18:18;51.65;38.63;69.58;;
64079;Laerm;51042;49.696;10.808;2023-04-02T01:21:07;42.01;38.91;60.34;;
64079;Laerm;51042;49.696;10.808;2023-04-02T01:23:47;40.72;38.32;46.07;;
64079;Laerm;51042;49.696;10.808;2023-04-02T01:26:52;40.90;38.76;51.65;;
64079;Laerm;51042;49.696;10.808;2023-04-02T01:31:49;40.40;38.16;47.33;;
64079;Laerm;51042;49.696;10.808;2023-04-02T01:34:19;40.63;38.39;57.16;;
64079;Laerm;51042;49.696;10.808;2023-04-02T01:42:20;41.54;38.77;54.29;;
64079;Laerm;51042;49.696;10.808;2023-04-02T01:44:51;50.63;39.10;67.88;;
64079;Laerm;51042;49.696;10.808;2023-04-02T01:47:21;49.98;39.10;66.03;;
64079;Laerm;51042;49.696;10.808;2023-04-02T01:49:46;42.08;38.96;57.37;;
64079;Laerm;51042;49.696;10.808;2023-04-02T01:52:16;41.14;38.62;51.70;;
64079;Laerm;51042;49.696;10.808;2023-04-02T01:54:45;40.73;38.73;45.45;;
64079;Laerm;51042;49.696;10.808;2023-04-02T01:57:12;40.84;38.39;49.54;;
64079;Laerm;51042;49.696;10.808;2023-04-02T01:59:38;40.66;38.59;46.63;;
64079;Laerm;51042;49.696;10.808;2023-04-02T02:02:13;46.36;37.95;61.74;;
64079;Laerm;51042;49.696;10.808;2023-04-02T02:04:39;41.80;38.30;52.38;;
64079;Laerm;51042;49.696;10.808;2023-04-02T02:07:05;42.28;38.43;60.66;;
64079;Laerm;51042;49.696;10.808;2023-04-02T02:09:38;41.32;38.82;50.36;;
64079;Laerm;51042;49.696;10.808;2023-04-02T02:12:05;41.22;38.80;51.77;;
64079;Laerm;51042;49.696;10.808;2023-04-02T02:14:31;41.21;39.00;49.74;;
64079;Laerm;51042;49.696;10.808;2023-04-02T02:16:59;41.39;39.11;49.95;;
64079;Laerm;51042;49.696;10.808;2023-04-02T02:19:40;48.26;39.07;62.86;;
64079;Laerm;51042;49.696;10.808;2023-04-02T02:24:45;52.40;38.57;69.83;;
64079;Laerm;51042;49.696;10.808;2023-04-02T02:30:12;49.81;38.45;65.31;;
64079;Laerm;51042;49.696;10.808;2023-04-02T02:32:46;52.19;38.87;67.69;;
64079;Laerm;51042;49.696;10.808;2023-04-02T02:37:47;53.73;39.45;70.51;;
64079;Laerm;51042;49.696;10.808;2023-04-02T02:40:23;47.46;38.93;64.37;;
64079;Laerm;51042;49.696;10.808;2023-04-02T02:42:54;48.95;38.66;66.80;;
64079;Laerm;51042;49.696;10.808;2023-04-02T02:45:24;49.27;38.79;67.69;;
64079;Laerm;51042;49.696;10.808;2023-04-02T02:47:52;52.02;38.24;66.82;;
64079;Laerm;51042;49.696;10.808;2023-04-02T02:50:21;41.26;38.03;54.41;;
64079;Laerm;51042;49.696;10.808;2023-04-02T02:52:52;40.90;37.96;52.10;;
64079;Laerm;51042;49.696;10.808;2023-04-02T02:55:22;51.86;37.72;71.25;;
64079;Laerm;51042;49.696;10.808;2023-04-02T02:57:59;53.90;37.72;72.54;;
64079;Laerm;51042;49.696;10.808;2023-04-02T03:00:29;50.35;38.52;66.45;;
64079;Laerm;51042;49.696;10.808;2023-04-02T03:02:55;50.90;38.94;67.78;;
64079;Laerm;51042;49.696;10.808;2023-04-02T03:05:25;51.21;38.91;68.18;;
64079;Laerm;51042;49.696;10.808;2023-04-02T03:07:52;51.57;39.14;68.93;;
64079;Laerm;51042;49.696;10.808;2023-04-02T03:10:31;50.07;39.19;67.51;;
64079;Laerm;51042;49.696;10.808;2023-04-02T03:15:45;50.56;39.01;66.81;;
64079;Laerm;51042;49.696;10.808;2023-04-02T03:18:37;51.12;39.12;67.58;;
64079;Laerm;51042;49.696;10.808;2023-04-02T03:21:13;50.70;39.04;67.57;;
64079;Laerm;51042;49.696;10.808;2023-04-02T03:23:44;51.33;39.18;67.97;;
64079;Laerm;51042;49.696;10.808;2023-04-02T03:26:14;51.90;39.37;69.22;;
64079;Laerm;51042;49.696;10.808;2023-04-02T03:28:46;54.03;39.63;69.65;;
64079;Laerm;51042;49.696;10.808;2023-04-02T03:31:36;51.49;39.29;68.70;;
64079;Laerm;51042;49.696;10.808;2023-04-02T03:36:54;50.68;39.18;67.60;;
64079;Laerm;51042;49.696;10.808;2023-04-02T03:42:07;49.82;39.27;67.88;;
64079;Laerm;51042;49.696;10.808;2023-04-02T03:44:38;43.60;39.00;53.23;;
64079;Laerm;51042;49.696;10.808;2023-04-02T03:47:17;48.87;39.32;64.73;;
64079;Laerm;51042;49.696;10.808;2023-04-02T03:49:59;44.49;39.64;60.24;;
64079;Laerm;51042;49.696;10.808;2023-04-02T03:52:26;45.39;39.46;64.34;;
64079;Laerm;51042;49.696;10.808;2023-04-02T03:54:54;48.42;39.11;62.93;;
64079;Laerm;51042;49.696;10.808;2023-04-02T04:00:03;54.75;39.86;69.01;;
64079;Laerm;51042;49.696;10.808;2023-04-02T04:02:45;49.27;40.18;62.10;;
64079;Laerm;51042;49.696;10.808;2023-04-02T04:07:50;53.00;39.39;69.95;;
64079;Laerm;51042;49.696;10.808;2023-04-02T04:10:21;48.97;39.93;61.62;;
64079;Laerm;51042;49.696;10.808;2023-04-02T04:12:49;49.01;40.22;61.04;;
64079;Laerm;51042;49.696;10.808;2023-04-02T04:15:23;46.56;40.68;57.67;;
64079;Laerm;51042;49.696;10.808;2023-04-02T04:20:48;46.80;40.67;64.47;;
64079;Laerm;51042;49.696;10.808;2023-04-02T04:23:35;52.09;40.61;72.19;;
64079;Laerm;51042;49.696;10.808;2023-04-02T04:26:05;45.83;40.42;59.29;;
64079;Laerm;51042;49.696;10.808;2023-04-02T04:29:28;49.33;40.24;64.04;;
64079;Laerm;51042;49.696;10.808;2023-04-02T04:31:48;53.47;40.16;68.65;;
64079;Laerm;51042;49.696;10.808;2023-04-02T04:34:19;43.84;39.36;54.10;;
64079;Laerm;51042;49.696;10.808;2023-04-02T04:37:14;52.41;39.17;67.30;;
64079;Laerm;51042;49.696;10.808;2023-04-02T04:40:04;56.19;39.47;72.12;;
64079;Laerm;51042;49.696;10.808;2023-04-02T04:42:35;51.95;39.42;66.20;;
64079;Laerm;51042;49.696;10.808;2023-04-02T04:45:12;55.62;40.05;71.85;;
64079;Laerm;51042;49.696;10.808;2023-04-02T04:47:54;59.09;40.23;73.99;;
64079;Laerm;51042;49.696;10.808;2023-04-02T04:50:34;59.34;40.48;75.75;;
64079;Laerm;51042;49.696;10.808;2023-04-02T04:53:15;59.12;39.34;76.93;;
64079;Laerm;51042;49.696;10.808;2023-04-02T04:55:46;57.09;38.76;74.55;;
64079;Laerm;51042;49.696;10.808;2023-04-02T04:58:51;58.33;39.05;77.19;;
64079;Laerm;51042;49.696;10.808;2023-04-02T05:01:29;60.10;40.06;78.89;;
64079;Laerm;51042;49.696;10.808;2023-04-02T05:07:15;52.22;40.13;67.29;;
64079;Laerm;51042;49.696;10.808;2023-04-02T05:09:51;47.40;39.96;66.96;;
64079;Laerm;51042;49.696;10.808;2023-04-02T05:12:29;50.53;39.35;72.57;;
64079;Laerm;51042;49.696;10.808;2023-04-02T05:15:05;54.34;39.92;69.29;;
64079;Laerm;51042;49.696;10.808;2023-04-02T05:20:29;54.16;39.32;73.11;;
64079;Laerm;51042;49.696;10.808;2023-04-02T05:23:04;54.61;39.80;71.26;;
64079;Laerm;51042;49.696;10.808;2023-04-02T05:25:36;51.35;39.37;72.22;;
64079;Laerm;51042;49.696;10.808;2023-04-02T05:28:20;54.90;39.68;72.13;;
64079;Laerm;51042;49.696;10.808;2023-04-02T05:31:04;60.35;40.27;79.11;;
64079;Laerm;51042;49.696;10.808;2023-04-02T05:33:35;57.10;40.23;77.68;;
64079;Laerm;51042;49.696;10.808;2023-04-02T05:36:08;52.99;39.89;69.85;;
64079;Laerm;51042;49.696;10.808;2023-04-02T05:38:37;56.45;39.61;74.80;;
64079;Laerm;51042;49.696;10.808;2023-04-02T05:41:26;53.84;39.97;68.88;;
64079;Laerm;51042;49.696;10.808;2023-04-02T05:44:25;56.94;39.96;72.68;;
64079;Laerm;51042;49.696;10.808;2023-04-02T05:52:35;51.68;39.91;67.88;;
64079;Laerm;51042;49.696;10.808;2023-04-02T05:57:53;54.94;40.18;76.52;;
64079;Laerm;51042;49.696;10.808;2023-04-02T06:00:41;54.09;40.05;73.07;;
64079;Laerm;51042;49.696;10.808;2023-04-02T06:05:58;50.09;40.42;67.16;;
64079;Laerm;51042;49.696;10.808;2023-04-02T06:08:37;55.76;40.83;77.24;;
64079;Laerm;51042;49.696;10.808;2023-04-02T06:11:12;47.02;40.12;60.11;;
64079;Laerm;51042;49.696;10.808;2023-04-02T06:13:38;59.11;40.73;76.47;;
64079;Laerm;51042;49.696;10.808;2023-04-02T06:16:04;56.47;40.28;70.53;;
64079;Laerm;51042;49.696;10.808;2023-04-02T06:18:33;58.03;40.67;73.24;;
64079;Laerm;51042;49.696;10.808;2023-04-02T06:21:00;58.15;40.46;70.02;;
64079;Laerm;51042;49.696;10.808;2023-04-02T06:23:37;55.26;40.58;69.38;;
64079;Laerm;51042;49.696;10.808;2023-04-02T06:31:43;56.36;41.74;75.54;;
64079;Laerm;51042;49.696;10.808;2023-04-02T06:34:30;52.05;40.81;70.65;;
64079;Laerm;51042;49.696;10.808;2023-04-02T06:37:01;46.90;39.97;70.91;;
64079;Laerm;51042;49.696;10.808;2023-04-02T06:39:28;52.13;40.40;67.50;;
64079;Laerm;51042;49.696;10.808;2023-04-02T06:42:18;53.57;39.50;69.62;;
64079;Laerm;51042;49.696;10.808;2023-04-02T06:44:45;56.40;39.82;69.70;;
64079;Laerm;51042;49.696;10.808;2023-04-02T06:47:25;52.55;40.35;68.23;;
64079;Laerm;51042;49.696;10.808;2023-04-02T06:50:48;60.45;41.30;72.43;;
64079;Laerm;51042;49.696;10.808;2023-04-02T06:52:58;60.69;41.85;75.51;;
64079;Laerm;51042;49.696;10.808;2023-04-02T06:55:50;61.26;40.85;74.32;;
64079;Laerm;51042;49.696;10.808;2023-04-02T06:58:17;59.93;40.92;84.13;;
64079;Laerm;51042;49.696;10.808;2023-04-02T07:00:45;60.74;40.51;73.98;;
64079;Laerm;51042;49.696;10.808;2023-04-02T07:03:23;61.93;40.69;78.06;;
64079;Laerm;51042;49.696;10.808;2023-04-02T07:05:50;58.81;40.53;75.76;;
64079;Laerm;51042;49.696;10.808;2023-04-02T07:08:15;54.87;40.40;71.80;;
64079;Laerm;51042;49.696;10.808;2023-04-02T07:10:41;58.15;40.43;75.03;;
64079;Laerm;51042;49.696;10.808;2023-04-02T07:13:10;59.24;40.71;74.17;;
64079;Laerm;51042;49.696;10.808;2023-04-02T07:15:38;58.32;41.04;77.42;;
64079;Laerm;51042;49.696;10.808;2023-04-02T07:18:03;61.29;40.51;89.82;;
64079;Laerm;51042;49.696;10.808;2023-04-02T07:20:31;52.42;40.38;67.65;;
64079;Laerm;51042;49.696;10.808;2023-04-02T07:22:57;60.99;41.20;75.73;;
64079;Laerm;51042;49.696;10.808;2023-04-02T07:25:23;61.89;40.77;74.94;;
64079;Laerm;51042;49.696;10.808;2023-04-02T07:27:50;59.77;41.18;71.07;;
64079;Laerm;51042;49.696;10.808;2023-04-02T07:30:16;54.13;40.91;70.66;;
64079;Laerm;51042;49.696;10.808;2023-04-02T07:32:41;58.80;41.19;71.88;;
64079;Laerm;51042;49.696;10.808;2023-04-02T07:35:07;60.74;41.39;72.10;;
64079;Laerm;51042;49.696;10.808;2023-04-02T07:37:34;58.14;42.22;70.66;;
64079;Laerm;51042;49.696;10.808;2023-04-02T07:39:59;58.20;40.94;71.63;;
64079;Laerm;51042;49.696;10.808;2023-04-02T07:42:25;62.09;41.55;76.03;;
64079;Laerm;51042;49.696;10.808;2023-04-02T07:44:50;61.66;42.08;73.48;;
64079;Laerm;51042;49.696;10.808;2023-04-02T07:47:15;60.74;41.83;74.00;;
64079;Laerm;51042;49.696;10.808;2023-04-02T07:49:41;58.90;42.68;78.73;;
64079;Laerm;51042;49.696;10.808;2023-04-02T07:52:06;57.83;41.33;72.81;;
64079;Laerm;51042;49.696;10.808;2023-04-02T07:54:31;59.74;40.67;78.06;;
64079;Laerm;51042;49.696;10.808;2023-04-02T07:56:57;63.41;40.86;78.48;;
64079;Laerm;51042;49.696;10.808;2023-04-02T07:59:22;58.31;41.57;71.44;;
64079;Laerm;51042;49.696;10.808;2023-04-02T08:01:47;58.50;40.94;76.20;;
64079;Laerm;51042;49.696;10.808;2023-04-02T08:04:18;60.95;40.74;74.00;;
64079;Laerm;51042;49.696;10.808;2023-04-02T08:06:45;59.93;41.14;73.95;;
64079;Laerm;51042;49.696;10.808;2023-04-02T08:09:11;62.07;41.09;81.70;;
64079;Laerm;51042;49.696;10.808;2023-04-02T08:11:36;57.17;40.45;71.75;;
64079;Laerm;51042;49.696;10.808;2023-04-02T08:14:02;59.55;41.29;78.55;;
64079;Laerm;51042;49.696;10.808;2023-04-02T08:16:27;59.56;41.52;77.43;;
64079;Laerm;51042;49.696;10.808;2023-04-02T08:18:53;63.01;41.62;96.46;;
64079;Laerm;51042;49.696;10.808;2023-04-02T08:21:18;58.81;41.62;74.58;;
64079;Laerm;51042;49.696;10.808;2023-04-02T08:23:44;61.55;41.15;72.88;;
64079;Laerm;51042;49.696;10.808;2023-04-02T08:26:09;61.09;41.91;82.53;;
64079;Laerm;51042;49.696;10.808;2023-04-02T08:28:40;56.94;41.95;73.46;;
64079;Laerm;51042;49.696;10.808;2023-04-02T08:31:06;59.08;41.99;73.74;;
64079;Laerm;51042;49.696;10.808;2023-04-02T08:33:33;63.18;42.49;73.73;;
64079;Laerm;51042;49.696;10.808;2023-04-02T08:35:58;62.11;41.16;76.76;;
64079;Laerm;51042;49.696;10.808;2023-04-02T08:38:24;62.51;41.54;86.37;;
64079;Laerm;51042;49.696;10.808;2023-04-02T08:40:51;62.70;41.61;76.98;;
64079;Laerm;51042;49.696;10.808;2023-04-02T08:43:47;60.05;41.57;78.52;;
64079;Laerm;51042;49.696;10.808;2023-04-02T08:46:22;62.86;41.08;79.83;;
64079;Laerm;51042;49.696;10.808;2023-04-02T08:48:55;63.19;42.02;84.52;;
64079;Laerm;51042;49.696;10.808;2023-04-02T08:51:25;65.17;44.76;82.04;;
64079;Laerm;51042;49.696;10.808;2023-04-02T08:53:54;58.72;41.55;75.17;;
64079;Laerm;51042;49.696;10.808;2023-04-02T08:56:35;62.17;41.62;75.53;;
64079;Laerm;51042;49.696;10.808;2023-04-02T08:59:36;58.85;40.71;71.79;;
64079;Laerm;51042;49.696;10.808;2023-04-02T09:02:30;61.62;40.85;89.29;;
64079;Laerm;51042;49.696;10.808;2023-04-02T09:05:01;60.28;41.68;74.45;;
64079;Laerm;51042;49.696;10.808;2023-04-02T09:07:29;60.70;42.41;72.70;;
64079;Laerm;51042;49.696;10.808;2023-04-02T09:09:57;61.47;42.23;71.63;;
64079;Laerm;51042;49.696;10.808;2023-04-02T09:12:26;62.55;40.62;80.29;;
64079;Laerm;51042;49.696;10.808;2023-04-02T09:17:39;61.33;40.51;81.06;;
64079;Laerm;51042;49.696;10.808;2023-04-02T09:20:15;60.16;40.87;80.67;;
64079;Laerm;51042;49.696;10.808;2023-04-02T09:22:43;58.62;41.35;71.92;;
64079;Laerm;51042;49.696;10.808;2023-04-02T09:25:30;61.79;41.56;74.11;;
64079;Laerm;51042;49.696;10.808;2023-04-02T09:28:00;63.45;40.94;77.92;;
64079;Laerm;51042;49.696;10.808;2023-04-02T09:33:02;61.57;43.44;79.17;;
64079;Laerm;51042;49.696;10.808;2023-04-02T09:35:33;63.47;41.77;77.33;;
64079;Laerm;51042;49.696;10.808;2023-04-02T09:41:17;62.21;44.12;73.76;;
64079;Laerm;51042;49.696;10.808;2023-04-02T09:43:43;62.36;44.35;80.46;;
64079;Laerm;51042;49.696;10.808;2023-04-02T09:48:40;63.60;45.17;73.56;;
64079;Laerm;51042;49.696;10.808;2023-04-02T09:54:07;58.00;43.45;71.96;;
64079;Laerm;51042;49.696;10.808;2023-04-02T09:56:35;64.34;44.20;90.63;;
64079;Laerm;51042;49.696;10.808;2023-04-02T10:01:29;60.78;42.48;73.21;;
64079;Laerm;51042;49.696;10.808;2023-04-02T10:03:58;62.24;42.67;84.70;;
64079;Laerm;51042;49.696;10.808;2023-04-02T10:06:24;63.88;41.96;86.68;;
64079;Laerm;51042;49.696;10.808;2023-04-02T10:08:51;59.86;41.16;75.65;;
64079;Laerm;51042;49.696;10.808;2023-04-02T10:11:31;66.89;41.87;86.87;;
64079;Laerm;51042;49.696;10.808;2023-04-02T10:14:02;62.51;41.73;81.46;;
64079;Laerm;51042;49.696;10.808;2023-04-02T10:16:39;64.01;41.25;85.69;;
64079;Laerm;51042;49.696;10.808;2023-04-02T10:19:21;61.96;41.32;78.67;;
64079;Laerm;51042;49.696;10.808;2023-04-02T10:21:51;60.62;40.66;79.78;;
64079;Laerm;51042;49.696;10.808;2023-04-02T10:24:18;59.80;42.92;74.10;;
64079;Laerm;51042;49.696;10.808;2023-04-02T10:26:58;60.81;40.60;73.78;;
64079;Laerm;51042;49.696;10.808;2023-04-02T10:32:19;63.07;41.45;75.85;;
64079;Laerm;51042;49.696;10.808;2023-04-02T10:34:56;57.59;40.69;73.61;;
64079;Laerm;51042;49.696;10.808;2023-04-02T10:37:43;62.24;44.13;74.63;;
64079;Laerm;51042;49.696;10.808;2023-04-02T10:40:44;60.40;40.60;73.68;;
64079;Laerm;51042;49.696;10.808;2023-04-02T10:46:22;60.22;40.85;75.83;;
64079;Laerm;51042;49.696;10.808;2023-04-02T10:49:26;61.72;41.61;75.42;;
64079;Laerm;51042;49.696;10.808;2023-04-02T10:54:39;65.27;45.82;86.45;;
64079;Laerm;51042;49.696;10.808;2023-04-02T10:59:44;61.95;42.70;74.05;;
64079;Laerm;51042;49.696;10.808;2023-04-02T11:02:27;62.46;42.02;85.00;;
64079;Laerm;51042;49.696;10.808;2023-04-02T11:04:57;61.18;42.21;79.79;;
64079;Laerm;51042;49.696;10.808;2023-04-02T11:07:26;66.30;47.20;87.37;;
64079;Laerm;51042;49.696;10.808;2023-04-02T11:09:56;61.64;43.60;77.16;;
64079;Laerm;51042;49.696;10.808;2023-04-02T11:12:29;66.90;43.06;89.15;;
64079;Laerm;51042;49.696;10.808;2023-04-02T11:14:58;63.65;44.09;83.77;;
64079;Laerm;51042;49.696;10.808;2023-04-02T11:17:23;62.15;42.37;85.05;;
64079;Laerm;51042;49.696;10.808;2023-04-02T11:19:49;61.45;42.47;73.83;;
64079;Laerm;51042;49.696;10.808;2023-04-02T11:22:20;63.88;46.28;77.11;;
64079;Laerm;51042;49.696;10.808;2023-04-02T11:24:49;61.31;42.95;75.28;;
64079;Laerm;51042;49.696;10.808;2023-04-02T11:32:49;58.96;40.88;76.31;;
64079;Laerm;51042;49.696;10.808;2023-04-02T11:37:57;62.78;41.38;79.90;;
64079;Laerm;51042;49.696;10.808;2023-04-02T11:40:51;61.00;43.57;76.86;;
64079;Laerm;51042;49.696;10.808;2023-04-02T11:48:55;61.48;42.73;73.93;;
64079;Laerm;51042;49.696;10.808;2023-04-02T11:54:20;64.14;43.41;77.09;;
64079;Laerm;51042;49.696;10.808;2023-04-02T11:57:21;64.05;46.14;84.04;;
64079;Laerm;51042;49.696;10.808;2023-04-02T12:00:10;63.47;41.60;76.23;;
64079;Laerm;51042;49.696;10.808;2023-04-02T12:06:07;63.38;41.23;76.03;;
64079;Laerm;51042;49.696;10.808;2023-04-02T12:08:40;58.85;41.38;72.10;;
64079;Laerm;51042;49.696;10.808;2023-04-02T12:11:12;61.02;41.07;71.80;;
64079;Laerm;51042;49.696;10.808;2023-04-02T12:16:04;62.87;42.43;83.26;;
64079;Laerm;51042;49.696;10.808;2023-04-02T12:18:32;64.78;42.84;76.30;;
64079;Laerm;51042;49.696;10.808;2023-04-02T12:20:58;65.81;43.27;85.13;;
64079;Laerm;51042;49.696;10.808;2023-04-02T12:23:33;65.53;43.32;84.70;;
64079;Laerm;51042;49.696;10.808;2023-04-02T12:26:00;62.84;42.75;81.67;;
64079;Laerm;51042;49.696;10.808;2023-04-02T12:28:28;65.53;42.70;87.33;;
64079;Laerm;51042;49.696;10.808;2023-04-02T12:33:35;61.72;39.80;74.52;;
64079;Laerm;51042;49.696;10.808;2023-04-02T12:36:21;64.98;41.57;86.25;;
64079;Laerm;51042;49.696;10.808;2023-04-02T12:41:28;62.81;43.09;79.44;;
64079;Laerm;51042;49.696;10.808;2023-04-02T12:43:59;62.56;41.95;84.37;;
64079;Laerm;51042;49.696;10.808;2023-04-02T12:46:25;63.10;42.71;82.18;;
64079;Laerm;51042;49.696;10.808;2023-04-02T12:49:01;63.39;42.60;81.05;;
64079;Laerm;51042;49.696;10.808;2023-04-02T12:51:28;65.25;46.94;83.14;;
64079;Laerm;51042;49.696;10.808;2023-04-02T12:53:53;62.24;45.02;83.44;;
64079;Laerm;51042;49.696;10.808;2023-04-02T12:56:20;63.60;43.90;81.43;;
64079;Laerm;51042;49.696;10.808;2023-04-02T12:58:57;67.34;42.71;86.08;;
64079;Laerm;51042;49.696;10.808;2023-04-02T13:01:27;62.05;42.35;76.11;;
64079;Laerm;51042;49.696;10.808;2023-04-02T13:06:26;59.71;40.78;77.92;;
64079;Laerm;51042;49.696;10.808;2023-04-02T13:08:52;62.73;43.31;77.94;;
64079;Laerm;51042;49.696;10.808;2023-04-02T13:11:18;66.13;40.90;89.17;;
64079;Laerm;51042;49.696;10.808;2023-04-02T13:13:45;67.01;41.92;86.53;;
64079;Laerm;51042;49.696;10.808;2023-04-02T13:18:45;71.55;46.20;93.58;;
64079;Laerm;51042;49.696;10.808;2023-04-02T13:23:43;69.24;43.99;89.73;;
64079;Laerm;51042;49.696;10.808;2023-04-02T13:26:22;64.67;41.00;85.50;;
64079;Laerm;51042;49.696;10.808;2023-04-02T13:28:58;68.26;41.02;88.20;;
64079;Laerm;51042;49.696;10.808;2023-04-02T13:31:23;63.48;41.18;85.01;;
64079;Laerm;51042;49.696;10.808;2023-04-02T13:33:49;62.65;41.70;84.28;;
64079;Laerm;51042;49.696;10.808;2023-04-02T13:36:15;66.69;40.89;92.44;;
64079;Laerm;51042;49.696;10.808;2023-04-02T13:38:40;62.87;41.23;80.01;;
64079;Laerm;51042;49.696;10.808;2023-04-02T13:41:20;66.88;44.39;90.80;;
64079;Laerm;51042;49.696;10.808;2023-04-02T13:43:48;64.24;43.02;85.00;;
64079;Laerm;51042;49.696;10.808;2023-04-02T13:46:20;66.41;41.81;89.24;;
64079;Laerm;51042;49.696;10.808;2023-04-02T13:48:47;68.38;40.47;84.66;;
64079;Laerm;51042;49.696;10.808;2023-04-02T13:51:16;69.23;42.23;90.22;;
64079;Laerm;51042;49.696;10.808;2023-04-02T13:53:44;66.05;42.34;87.14;;
64079;Laerm;51042;49.696;10.808;2023-04-02T13:56:11;72.95;41.10;94.00;;
64079;Laerm;51042;49.696;10.808;2023-04-02T13:58:36;62.38;39.29;81.70;;
64079;Laerm;51042;49.696;10.808;2023-04-02T14:01:02;66.01;43.12;91.77;;
64079;Laerm;51042;49.696;10.808;2023-04-02T14:03:28;66.93;40.84;88.86;;
64079;Laerm;51042;49.696;10.808;2023-04-02T14:06:05;69.45;41.90;93.96;;
64079;Laerm;51042;49.696;10.808;2023-04-02T14:08:45;62.92;42.47;80.14;;
64079;Laerm;51042;49.696;10.808;2023-04-02T14:11:35;61.18;40.67;79.75;;
64079;Laerm;51042;49.696;10.808;2023-04-02T14:17:13;61.61;41.55;79.77;;
64079;Laerm;51042;49.696;10.808;2023-04-02T14:23:27;63.66;41.76;82.59;;
64079;Laerm;51042;49.696;10.808;2023-04-02T14:29:19;64.72;41.88;89.61;;
64079;Laerm;51042;49.696;10.808;2023-04-02T14:31:54;66.34;41.55;88.54;;
64079;Laerm;51042;49.696;10.808;2023-04-02T14:34:34;65.48;41.43;85.30;;
64079;Laerm;51042;49.696;10.808;2023-04-02T14:37:23;65.04;41.22;85.10;;
64079;Laerm;51042;49.696;10.808;2023-04-02T14:40:20;66.95;42.10;87.35;;
64079;Laerm;51042;49.696;10.808;2023-04-02T14:43:01;68.36;41.41;85.23;;
64079;Laerm;51042;49.696;10.808;2023-04-02T14:51:32;62.98;40.57;83.52;;
64079;Laerm;51042;49.696;10.808;2023-04-02T14:56:30;64.69;45.48;87.39;;
64079;Laerm;51042;49.696;10.808;2023-04-02T14:59:26;72.21;41.73;90.53;;
64079;Laerm;51042;49.696;10.808;2023-04-02T15:01:59;72.89;41.26;93.11;;
64079;Laerm;51042;49.696;10.808;2023-04-02T15:04:38;68.64;42.07;92.84;;
64079;Laerm;51042;49.696;10.808;2023-04-02T15:07:13;67.69;40.78;87.75;;
64079;Laerm;51042;49.696;10.808;2023-04-02T15:09:46;63.65;40.34;86.53;;
64079;Laerm;51042;49.696;10.808;2023-04-02T15:12:32;63.00;40.36;84.28;;
64079;Laerm;51042;49.696;10.808;2023-04-02T15:15:18;62.51;41.68;85.14;;
64079;Laerm;51042;49.696;10.808;2023-04-02T15:17:44;60.04;40.20;80.81;;
64079;Laerm;51042;49.696;10.808;2023-04-02T15:20:17;64.02;40.19;86.42;;
64079;Laerm;51042;49.696;10.808;2023-04-02T15:23:08;65.08;42.25;85.47;;
64079;Laerm;51042;49.696;10.808;2023-04-02T15:25:52;61.68;41.28;83.27;;
64079;Laerm;51042;49.696;10.808;2023-04-02T15:28:42;61.66;41.35;79.93;;
64079;Laerm;51042;49.696;10.808;2023-04-02T15:31:13;65.27;40.19;86.88;;
64079;Laerm;51042;49.696;10.808;2023-04-02T15:33:49;69.65;40.02;87.93;;
64079;Laerm;51042;49.696;10.808;2023-04-02T15:41:56;62.96;42.45;75.25;;
64079;Laerm;51042;49.696;10.808;2023-04-02T15:44:26;63.05;41.26;85.25;;
64079;Laerm;51042;49.696;10.808;2023-04-02T15:52:27;59.69;41.09;80.20;;
64079;Laerm;51042;49.696;10.808;2023-04-02T15:55:16;63.77;40.59;83.43;;
64079;Laerm;51042;49.696;10.808;2023-04-02T16:00:48;61.46;39.51;85.08;;
64079;Laerm;51042;49.696;10.808;2023-04-02T16:03:19;61.62;41.35;80.68;;
64079;Laerm;51042;49.696;10.808;2023-04-02T16:08:58;70.23;41.63;101.03;;
64079;Laerm;51042;49.696;10.808;2023-04-02T16:11:26;58.69;41.00;78.85;;
64079;Laerm;51042;49.696;10.808;2023-04-02T16:13:59;59.80;40.63;79.38;;
64079;Laerm;51042;49.696;10.808;2023-04-02T16:16:31;62.78;40.61;77.65;;
64079;Laerm;51042;49.696;10.808;2023-04-02T16:21:30;56.53;40.08;75.59;;
64079;Laerm;51042;49.696;10.808;2023-04-02T16:23:57;61.31;39.65;78.82;;
64079;Laerm;51042;49.696;10.808;2023-04-02T16:34:37;65.18;40.55;88.82;;
64079;Laerm;51042;49.696;10.808;2023-04-02T16:37:20;67.78;39.73;90.90;;
64079;Laerm;51042;49.696;10.808;2023-04-02T16:39:56;69.87;40.36;91.59;;
64079;Laerm;51042;49.696;10.808;2023-04-02T16:42:34;64.39;40.72;85.58;;
64079;Laerm;51042;49.696;10.808;2023-04-02T16:45:24;64.54;40.42;81.29;;
64079;Laerm;51042;49.696;10.808;2023-04-02T16:50:33;68.52;40.84;88.10;;
64079;Laerm;51042;49.696;10.808;2023-04-02T16:56:25;71.57;40.08;89.07;;
64079;Laerm;51042;49.696;10.808;2023-04-02T16:58:59;67.73;41.05;93.35;;
64079;Laerm;51042;49.696;10.808;2023-04-02T17:10:31;63.57;40.74;83.56;;
64079;Laerm;51042;49.696;10.808;2023-04-02T17:16:05;66.18;40.61;85.46;;
64079;Laerm;51042;49.696;10.808;2023-04-02T17:18:37;61.60;39.46;83.93;;